sensor_id;sensor_type;location;lat;lon;timestamp;P1;durP1;ratioP1;P2;durP2;ratioP2
13321;SDS011;6730;46.248;6.930;2023-08-24T00:01:36;10.05;;;3.50;;
13321;SDS011;6730;46.248;6.930;2023-08-24T00:04:04;8.93;;;3.40;;
13321;SDS011;6730;46.248;6.930;2023-08-24T00:06:30;9.02;;;3.60;;
13321;SDS011;6730;46.248;6.930;2023-08-24T00:08:56;9.25;;;3.90;;
13321;SDS011;6730;46.248;6.930;2023-08-24T00:11:21;8.32;;;3.25;;
13321;SDS011;6730;46.248;6.930;2023-08-24T00:13:47;7.85;;;3.60;;
13321;SDS011;6730;46.248;6.930;2023-08-24T00:16:17;9.90;;;3.70;;
13321;SDS011;6730;46.248;6.930;2023-08-24T00:18:43;6.93;;;3.28;;
13321;SDS011;6730;46.248;6.930;2023-08-24T00:21:09;8.60;;;3.60;;
13321;SDS011;6730;46.248;6.930;2023-08-24T00:23:36;9.60;;;3.85;;
13321;SDS011;6730;46.248;6.930;2023-08-24T00:26:01;9.60;;;3.95;;
13321;SDS011;6730;46.248;6.930;2023-08-24T00:28:27;7.20;;;3.78;;
13321;SDS011;6730;46.248;6.930;2023-08-24T00:30:53;12.50;;;3.78;;
13321;SDS011;6730;46.248;6.930;2023-08-24T00:33:18;8.73;;;4.00;;
13321;SDS011;6730;46.248;6.930;2023-08-24T00:35:44;5.72;;;3.70;;
13321;SDS011;6730;46.248;6.930;2023-08-24T00:38:10;10.68;;;3.58;;
13321;SDS011;6730;46.248;6.930;2023-08-24T00:40:40;6.93;;;3.80;;
13321;SDS011;6730;46.248;6.930;2023-08-24T00:43:07;12.10;;;5.68;;
13321;SDS011;6730;46.248;6.930;2023-08-24T00:45:32;10.07;;;3.97;;
13321;SDS011;6730;46.248;6.930;2023-08-24T00:47:59;10.05;;;2.95;;
13321;SDS011;6730;46.248;6.930;2023-08-24T00:50:25;6.80;;;3.42;;
13321;SDS011;6730;46.248;6.930;2023-08-24T00:52:50;11.95;;;4.03;;
13321;SDS011;6730;46.248;6.930;2023-08-24T00:55:17;8.95;;;3.45;;
13321;SDS011;6730;46.248;6.930;2023-08-24T00:57:44;10.35;;;3.80;;
13321;SDS011;6730;46.248;6.930;2023-08-24T01:00:10;10.07;;;4.22;;
13321;SDS011;6730;46.248;6.930;2023-08-24T01:02:42;7.30;;;3.38;;
13321;SDS011;6730;46.248;6.930;2023-08-24T01:05:07;9.07;;;3.85;;
13321;SDS011;6730;46.248;6.930;2023-08-24T01:07:34;8.77;;;3.70;;
13321;SDS011;6730;46.248;6.930;2023-08-24T01:10:02;8.00;;;3.63;;
13321;SDS011;6730;46.248;6.930;2023-08-24T01:13:19;6.35;;;3.47;;
13321;SDS011;6730;46.248;6.930;2023-08-24T01:15:33;8.23;;;3.75;;
13321;SDS011;6730;46.248;6.930;2023-08-24T01:18:10;11.10;;;4.70;;
13321;SDS011;6730;46.248;6.930;2023-08-24T01:20:40;8.25;;;3.70;;
13321;SDS011;6730;46.248;6.930;2023-08-24T01:23:14;6.53;;;3.58;;
13321;SDS011;6730;46.248;6.930;2023-08-24T01:28:43;9.40;;;3.60;;
13321;SDS011;6730;46.248;6.930;2023-08-24T01:31:10;10.40;;;3.50;;
13321;SDS011;6730;46.248;6.930;2023-08-24T01:33:35;9.43;;;3.65;;
13321;SDS011;6730;46.248;6.930;2023-08-24T01:36:01;9.23;;;3.35;;
13321;SDS011;6730;46.248;6.930;2023-08-24T01:38:27;9.75;;;3.90;;
13321;SDS011;6730;46.248;6.930;2023-08-24T01:43:35;7.00;;;3.38;;
13321;SDS011;6730;46.248;6.930;2023-08-24T01:46:05;11.23;;;3.78;;
13321;SDS011;6730;46.248;6.930;2023-08-24T01:48:33;11.10;;;4.10;;
13321;SDS011;6730;46.248;6.930;2023-08-24T01:51:00;11.82;;;3.83;;
13321;SDS011;6730;46.248;6.930;2023-08-24T01:53:27;9.48;;;3.50;;
13321;SDS011;6730;46.248;6.930;2023-08-24T01:55:55;11.90;;;3.97;;
13321;SDS011;6730;46.248;6.930;2023-08-24T01:58:20;8.65;;;3.78;;
13321;SDS011;6730;46.248;6.930;2023-08-24T02:00:46;9.32;;;3.63;;
13321;SDS011;6730;46.248;6.930;2023-08-24T02:03:12;7.95;;;3.70;;
13321;SDS011;6730;46.248;6.930;2023-08-24T02:05:38;8.10;;;3.50;;
13321;SDS011;6730;46.248;6.930;2023-08-24T02:08:03;7.70;;;3.75;;
13321;SDS011;6730;46.248;6.930;2023-08-24T02:10:29;7.22;;;3.92;;
13321;SDS011;6730;46.248;6.930;2023-08-24T02:12:55;11.07;;;4.50;;
13321;SDS011;6730;46.248;6.930;2023-08-24T02:15:20;9.48;;;3.58;;
13321;SDS011;6730;46.248;6.930;2023-08-24T02:17:46;11.10;;;3.80;;
13321;SDS011;6730;46.248;6.930;2023-08-24T02:20:12;8.60;;;3.70;;
13321;SDS011;6730;46.248;6.930;2023-08-24T02:22:38;5.53;;;3.63;;
13321;SDS011;6730;46.248;6.930;2023-08-24T02:25:04;12.43;;;4.00;;
13321;SDS011;6730;46.248;6.930;2023-08-24T02:27:31;8.90;;;4.05;;
13321;SDS011;6730;46.248;6.930;2023-08-24T02:29:57;7.72;;;4.10;;
13321;SDS011;6730;46.248;6.930;2023-08-24T02:32:22;9.95;;;3.78;;
13321;SDS011;6730;46.248;6.930;2023-08-24T02:34:48;12.27;;;3.45;;
13321;SDS011;6730;46.248;6.930;2023-08-24T02:37:14;12.32;;;3.90;;
13321;SDS011;6730;46.248;6.930;2023-08-24T02:39:39;11.35;;;3.25;;
13321;SDS011;6730;46.248;6.930;2023-08-24T02:42:05;8.35;;;4.07;;
13321;SDS011;6730;46.248;6.930;2023-08-24T02:44:31;10.20;;;3.60;;
13321;SDS011;6730;46.248;6.930;2023-08-24T02:46:57;7.10;;;3.53;;
13321;SDS011;6730;46.248;6.930;2023-08-24T02:49:22;9.32;;;3.42;;
13321;SDS011;6730;46.248;6.930;2023-08-24T02:51:48;10.75;;;4.47;;
13321;SDS011;6730;46.248;6.930;2023-08-24T02:54:14;10.77;;;4.13;;
13321;SDS011;6730;46.248;6.930;2023-08-24T02:56:40;9.43;;;4.43;;
13321;SDS011;6730;46.248;6.930;2023-08-24T02:59:06;9.57;;;3.88;;
13321;SDS011;6730;46.248;6.930;2023-08-24T03:01:31;12.13;;;3.88;;
13321;SDS011;6730;46.248;6.930;2023-08-24T03:03:57;14.45;;;4.00;;
13321;SDS011;6730;46.248;6.930;2023-08-24T03:06:23;6.40;;;3.25;;
13321;SDS011;6730;46.248;6.930;2023-08-24T03:08:49;7.40;;;3.50;;
13321;SDS011;6730;46.248;6.930;2023-08-24T03:11:15;7.63;;;3.67;;
13321;SDS011;6730;46.248;6.930;2023-08-24T03:13:40;8.57;;;3.20;;
13321;SDS011;6730;46.248;6.930;2023-08-24T03:16:08;9.68;;;4.03;;
13321;SDS011;6730;46.248;6.930;2023-08-24T03:18:34;8.13;;;3.78;;
13321;SDS011;6730;46.248;6.930;2023-08-24T03:21:00;11.60;;;3.47;;
13321;SDS011;6730;46.248;6.930;2023-08-24T03:23:26;10.68;;;3.72;;
13321;SDS011;6730;46.248;6.930;2023-08-24T03:25:52;7.40;;;3.78;;
13321;SDS011;6730;46.248;6.930;2023-08-24T03:28:21;14.02;;;4.35;;
13321;SDS011;6730;46.248;6.930;2023-08-24T03:30:47;5.70;;;3.38;;
13321;SDS011;6730;46.248;6.930;2023-08-24T03:33:16;11.07;;;4.57;;
13321;SDS011;6730;46.248;6.930;2023-08-24T03:35:42;9.65;;;4.18;;
13321;SDS011;6730;46.248;6.930;2023-08-24T03:38:08;8.07;;;3.88;;
13321;SDS011;6730;46.248;6.930;2023-08-24T03:40:34;11.20;;;3.92;;
13321;SDS011;6730;46.248;6.930;2023-08-24T03:43:03;8.98;;;3.92;;
13321;SDS011;6730;46.248;6.930;2023-08-24T03:45:29;10.85;;;3.83;;
13321;SDS011;6730;46.248;6.930;2023-08-24T03:47:54;12.48;;;3.60;;
13321;SDS011;6730;46.248;6.930;2023-08-24T03:50:20;19.20;;;3.83;;
13321;SDS011;6730;46.248;6.930;2023-08-24T03:52:47;10.85;;;3.78;;
13321;SDS011;6730;46.248;6.930;2023-08-24T03:55:15;11.35;;;3.58;;
13321;SDS011;6730;46.248;6.930;2023-08-24T03:57:41;14.90;;;3.83;;
13321;SDS011;6730;46.248;6.930;2023-08-24T04:00:07;11.10;;;3.95;;
13321;SDS011;6730;46.248;6.930;2023-08-24T04:02:42;10.25;;;3.90;;
13321;SDS011;6730;46.248;6.930;2023-08-24T04:05:09;12.93;;;3.80;;
13321;SDS011;6730;46.248;6.930;2023-08-24T04:07:34;9.15;;;3.35;;
13321;SDS011;6730;46.248;6.930;2023-08-24T04:10:04;10.82;;;3.65;;
13321;SDS011;6730;46.248;6.930;2023-08-24T04:12:31;12.15;;;3.70;;
13321;SDS011;6730;46.248;6.930;2023-08-24T04:14:57;10.60;;;3.50;;
13321;SDS011;6730;46.248;6.930;2023-08-24T04:17:23;9.02;;;3.60;;
13321;SDS011;6730;46.248;6.930;2023-08-24T04:19:55;11.73;;;3.60;;
13321;SDS011;6730;46.248;6.930;2023-08-24T04:22:21;11.07;;;4.72;;
13321;SDS011;6730;46.248;6.930;2023-08-24T04:24:46;15.20;;;4.40;;
13321;SDS011;6730;46.248;6.930;2023-08-24T04:27:12;8.90;;;3.17;;
13321;SDS011;6730;46.248;6.930;2023-08-24T04:29:38;10.43;;;4.07;;
13321;SDS011;6730;46.248;6.930;2023-08-24T04:32:06;8.02;;;3.55;;
13321;SDS011;6730;46.248;6.930;2023-08-24T04:34:33;10.52;;;4.35;;
13321;SDS011;6730;46.248;6.930;2023-08-24T04:36:58;10.63;;;4.18;;
13321;SDS011;6730;46.248;6.930;2023-08-24T04:39:26;12.00;;;3.67;;
13321;SDS011;6730;46.248;6.930;2023-08-24T04:41:52;11.45;;;3.67;;
13321;SDS011;6730;46.248;6.930;2023-08-24T04:44:17;14.32;;;3.97;;
13321;SDS011;6730;46.248;6.930;2023-08-24T04:46:43;11.82;;;4.22;;
13321;SDS011;6730;46.248;6.930;2023-08-24T04:49:08;8.88;;;3.30;;
13321;SDS011;6730;46.248;6.930;2023-08-24T04:51:34;15.82;;;3.70;;
13321;SDS011;6730;46.248;6.930;2023-08-24T04:54:00;10.77;;;3.30;;
13321;SDS011;6730;46.248;6.930;2023-08-24T04:56:25;10.20;;;3.85;;
13321;SDS011;6730;46.248;6.930;2023-08-24T04:58:55;9.35;;;3.75;;
13321;SDS011;6730;46.248;6.930;2023-08-24T05:01:22;11.63;;;3.45;;
13321;SDS011;6730;46.248;6.930;2023-08-24T05:03:49;19.85;;;5.03;;
13321;SDS011;6730;46.248;6.930;2023-08-24T05:06:16;12.88;;;4.15;;
13321;SDS011;6730;46.248;6.930;2023-08-24T05:08:42;19.05;;;4.20;;
13321;SDS011;6730;46.248;6.930;2023-08-24T05:11:14;10.57;;;3.70;;
13321;SDS011;6730;46.248;6.930;2023-08-24T05:13:44;9.93;;;4.50;;
13321;SDS011;6730;46.248;6.930;2023-08-24T05:16:10;14.77;;;3.75;;
13321;SDS011;6730;46.248;6.930;2023-08-24T05:18:37;15.77;;;4.30;;
13321;SDS011;6730;46.248;6.930;2023-08-24T05:21:04;11.90;;;3.88;;
13321;SDS011;6730;46.248;6.930;2023-08-24T05:23:31;9.75;;;3.67;;
13321;SDS011;6730;46.248;6.930;2023-08-24T05:25:57;13.07;;;4.93;;
13321;SDS011;6730;46.248;6.930;2023-08-24T05:28:24;16.77;;;3.75;;
13321;SDS011;6730;46.248;6.930;2023-08-24T05:30:51;17.52;;;4.40;;
13321;SDS011;6730;46.248;6.930;2023-08-24T05:33:17;13.02;;;4.13;;
13321;SDS011;6730;46.248;6.930;2023-08-24T05:35:44;15.65;;;4.10;;
13321;SDS011;6730;46.248;6.930;2023-08-24T05:38:10;14.90;;;3.75;;
13321;SDS011;6730;46.248;6.930;2023-08-24T05:40:39;15.30;;;3.85;;
13321;SDS011;6730;46.248;6.930;2023-08-24T05:43:06;10.07;;;3.50;;
13321;SDS011;6730;46.248;6.930;2023-08-24T05:45:32;11.23;;;3.22;;
13321;SDS011;6730;46.248;6.930;2023-08-24T05:47:57;18.67;;;4.55;;
13321;SDS011;6730;46.248;6.930;2023-08-24T05:50:24;8.65;;;3.40;;
13321;SDS011;6730;46.248;6.930;2023-08-24T05:52:49;10.85;;;3.67;;
13321;SDS011;6730;46.248;6.930;2023-08-24T05:55:15;13.98;;;4.10;;
13321;SDS011;6730;46.248;6.930;2023-08-24T05:57:41;16.55;;;4.07;;
13321;SDS011;6730;46.248;6.930;2023-08-24T06:00:07;18.02;;;4.57;;
13321;SDS011;6730;46.248;6.930;2023-08-24T06:02:36;15.50;;;3.72;;
13321;SDS011;6730;46.248;6.930;2023-08-24T06:05:02;16.23;;;4.20;;
13321;SDS011;6730;46.248;6.930;2023-08-24T06:07:28;17.88;;;4.82;;
13321;SDS011;6730;46.248;6.930;2023-08-24T06:09:56;14.10;;;4.20;;
13321;SDS011;6730;46.248;6.930;2023-08-24T06:12:21;17.75;;;4.38;;
13321;SDS011;6730;46.248;6.930;2023-08-24T06:14:47;16.88;;;4.32;;
13321;SDS011;6730;46.248;6.930;2023-08-24T06:17:13;11.77;;;4.20;;
13321;SDS011;6730;46.248;6.930;2023-08-24T06:19:38;9.57;;;4.38;;
13321;SDS011;6730;46.248;6.930;2023-08-24T06:22:04;18.42;;;4.55;;
13321;SDS011;6730;46.248;6.930;2023-08-24T06:24:30;16.38;;;4.55;;
13321;SDS011;6730;46.248;6.930;2023-08-24T06:26:56;15.05;;;4.45;;
13321;SDS011;6730;46.248;6.930;2023-08-24T06:29:22;16.17;;;4.75;;
13321;SDS011;6730;46.248;6.930;2023-08-24T06:31:47;14.10;;;4.03;;
13321;SDS011;6730;46.248;6.930;2023-08-24T06:34:13;16.40;;;4.35;;
13321;SDS011;6730;46.248;6.930;2023-08-24T06:36:39;14.27;;;4.88;;
13321;SDS011;6730;46.248;6.930;2023-08-24T06:39:05;18.38;;;4.90;;
13321;SDS011;6730;46.248;6.930;2023-08-24T06:41:34;16.40;;;4.18;;
13321;SDS011;6730;46.248;6.930;2023-08-24T06:44:00;15.73;;;4.57;;
13321;SDS011;6730;46.248;6.930;2023-08-24T06:46:26;14.10;;;4.88;;
13321;SDS011;6730;46.248;6.930;2023-08-24T06:48:52;14.40;;;4.78;;
13321;SDS011;6730;46.248;6.930;2023-08-24T06:51:18;15.93;;;4.50;;
13321;SDS011;6730;46.248;6.930;2023-08-24T06:53:43;17.83;;;4.60;;
13321;SDS011;6730;46.248;6.930;2023-08-24T06:56:11;14.18;;;4.07;;
13321;SDS011;6730;46.248;6.930;2023-08-24T06:58:39;12.43;;;4.82;;
13321;SDS011;6730;46.248;6.930;2023-08-24T07:01:04;15.15;;;4.00;;
13321;SDS011;6730;46.248;6.930;2023-08-24T07:03:31;12.00;;;4.78;;
13321;SDS011;6730;46.248;6.930;2023-08-24T07:06:00;14.40;;;4.63;;
13321;SDS011;6730;46.248;6.930;2023-08-24T07:08:25;19.30;;;4.45;;
13321;SDS011;6730;46.248;6.930;2023-08-24T07:10:51;16.08;;;4.78;;
13321;SDS011;6730;46.248;6.930;2023-08-24T07:13:17;18.00;;;4.18;;
13321;SDS011;6730;46.248;6.930;2023-08-24T07:15:42;16.23;;;4.80;;
13321;SDS011;6730;46.248;6.930;2023-08-24T07:18:15;17.00;;;4.80;;
13321;SDS011;6730;46.248;6.930;2023-08-24T07:20:42;13.90;;;4.75;;
13321;SDS011;6730;46.248;6.930;2023-08-24T07:23:07;14.32;;;4.35;;
13321;SDS011;6730;46.248;6.930;2023-08-24T07:25:33;15.88;;;5.10;;
13321;SDS011;6730;46.248;6.930;2023-08-24T07:28:00;15.63;;;4.53;;
13321;SDS011;6730;46.248;6.930;2023-08-24T07:30:28;14.52;;;4.80;;
13321;SDS011;6730;46.248;6.930;2023-08-24T07:32:54;14.65;;;4.60;;
13321;SDS011;6730;46.248;6.930;2023-08-24T07:35:20;17.15;;;5.05;;
13321;SDS011;6730;46.248;6.930;2023-08-24T07:37:49;22.42;;;5.90;;
13321;SDS011;6730;46.248;6.930;2023-08-24T07:40:14;14.25;;;4.47;;
13321;SDS011;6730;46.248;6.930;2023-08-24T07:42:47;13.98;;;4.30;;
13321;SDS011;6730;46.248;6.930;2023-08-24T07:45:15;12.13;;;5.13;;
13321;SDS011;6730;46.248;6.930;2023-08-24T07:47:42;24.35;;;5.65;;
13321;SDS011;6730;46.248;6.930;2023-08-24T07:50:08;15.85;;;4.25;;
13321;SDS011;6730;46.248;6.930;2023-08-24T07:52:36;17.35;;;5.20;;
13321;SDS011;6730;46.248;6.930;2023-08-24T07:55:03;19.17;;;5.10;;
13321;SDS011;6730;46.248;6.930;2023-08-24T07:57:29;14.82;;;4.53;;
13321;SDS011;6730;46.248;6.930;2023-08-24T07:59:56;16.05;;;4.53;;
13321;SDS011;6730;46.248;6.930;2023-08-24T08:02:22;22.42;;;5.10;;
13321;SDS011;6730;46.248;6.930;2023-08-24T08:04:48;14.82;;;5.22;;
13321;SDS011;6730;46.248;6.930;2023-08-24T08:07:14;19.77;;;5.00;;
13321;SDS011;6730;46.248;6.930;2023-08-24T08:09:39;16.50;;;4.82;;
13321;SDS011;6730;46.248;6.930;2023-08-24T08:12:05;13.40;;;4.55;;
13321;SDS011;6730;46.248;6.930;2023-08-24T08:14:31;18.60;;;5.30;;
13321;SDS011;6730;46.248;6.930;2023-08-24T08:16:56;13.38;;;4.78;;
13321;SDS011;6730;46.248;6.930;2023-08-24T08:19:22;20.63;;;5.93;;
13321;SDS011;6730;46.248;6.930;2023-08-24T08:21:50;18.33;;;5.32;;
13321;SDS011;6730;46.248;6.930;2023-08-24T08:24:16;15.10;;;5.43;;
13321;SDS011;6730;46.248;6.930;2023-08-24T08:26:41;14.57;;;4.82;;
13321;SDS011;6730;46.248;6.930;2023-08-24T08:29:07;15.27;;;5.80;;
13321;SDS011;6730;46.248;6.930;2023-08-24T08:31:35;17.75;;;5.60;;
13321;SDS011;6730;46.248;6.930;2023-08-24T08:34:02;16.55;;;5.88;;
13321;SDS011;6730;46.248;6.930;2023-08-24T08:36:29;18.13;;;4.85;;
13321;SDS011;6730;46.248;6.930;2023-08-24T08:38:57;17.95;;;4.63;;
13321;SDS011;6730;46.248;6.930;2023-08-24T08:41:23;23.92;;;4.90;;
13321;SDS011;6730;46.248;6.930;2023-08-24T08:43:55;14.02;;;5.03;;
13321;SDS011;6730;46.248;6.930;2023-08-24T08:46:21;14.65;;;4.65;;
13321;SDS011;6730;46.248;6.930;2023-08-24T08:48:47;13.48;;;4.50;;
13321;SDS011;6730;46.248;6.930;2023-08-24T08:51:15;18.02;;;5.15;;
13321;SDS011;6730;46.248;6.930;2023-08-24T08:53:43;16.35;;;5.25;;
13321;SDS011;6730;46.248;6.930;2023-08-24T08:56:09;15.35;;;5.25;;
13321;SDS011;6730;46.248;6.930;2023-08-24T08:58:36;17.42;;;4.93;;
13321;SDS011;6730;46.248;6.930;2023-08-24T09:01:02;20.58;;;5.32;;
13321;SDS011;6730;46.248;6.930;2023-08-24T09:03:29;14.13;;;5.63;;
13321;SDS011;6730;46.248;6.930;2023-08-24T09:05:56;16.67;;;4.90;;
13321;SDS011;6730;46.248;6.930;2023-08-24T09:08:22;20.88;;;6.55;;
13321;SDS011;6730;46.248;6.930;2023-08-24T09:10:49;18.77;;;5.40;;
13321;SDS011;6730;46.248;6.930;2023-08-24T09:13:15;18.50;;;5.03;;
13321;SDS011;6730;46.248;6.930;2023-08-24T09:15:40;14.90;;;4.47;;
13321;SDS011;6730;46.248;6.930;2023-08-24T09:18:06;20.23;;;5.70;;
13321;SDS011;6730;46.248;6.930;2023-08-24T09:20:33;18.90;;;5.35;;
13321;SDS011;6730;46.248;6.930;2023-08-24T09:22:59;10.55;;;4.07;;
13321;SDS011;6730;46.248;6.930;2023-08-24T09:25:25;17.63;;;5.32;;
13321;SDS011;6730;46.248;6.930;2023-08-24T09:28:01;11.43;;;5.22;;
13321;SDS011;6730;46.248;6.930;2023-08-24T09:30:36;19.15;;;5.25;;
13321;SDS011;6730;46.248;6.930;2023-08-24T09:33:09;14.13;;;5.18;;
13321;SDS011;6730;46.248;6.930;2023-08-24T09:35:36;13.65;;;5.35;;
13321;SDS011;6730;46.248;6.930;2023-08-24T09:38:23;14.05;;;4.90;;
13321;SDS011;6730;46.248;6.930;2023-08-24T09:40:52;14.57;;;4.88;;
13321;SDS011;6730;46.248;6.930;2023-08-24T09:43:18;17.58;;;6.32;;
13321;SDS011;6730;46.248;6.930;2023-08-24T09:45:51;15.88;;;4.93;;
13321;SDS011;6730;46.248;6.930;2023-08-24T09:48:18;21.80;;;6.00;;
13321;SDS011;6730;46.248;6.930;2023-08-24T09:50:48;13.20;;;4.80;;
13321;SDS011;6730;46.248;6.930;2023-08-24T09:53:19;14.93;;;5.07;;
13321;SDS011;6730;46.248;6.930;2023-08-24T09:55:52;13.57;;;5.25;;
13321;SDS011;6730;46.248;6.930;2023-08-24T09:58:21;14.45;;;4.47;;
13321;SDS011;6730;46.248;6.930;2023-08-24T10:00:48;15.70;;;5.88;;
13321;SDS011;6730;46.248;6.930;2023-08-24T10:03:15;13.48;;;5.25;;
13321;SDS011;6730;46.248;6.930;2023-08-24T10:05:45;14.93;;;5.38;;
13321;SDS011;6730;46.248;6.930;2023-08-24T10:08:29;17.55;;;5.30;;
13321;SDS011;6730;46.248;6.930;2023-08-24T10:10:59;20.73;;;5.50;;
13321;SDS011;6730;46.248;6.930;2023-08-24T10:13:34;15.07;;;5.38;;
13321;SDS011;6730;46.248;6.930;2023-08-24T10:16:09;15.80;;;4.95;;
13321;SDS011;6730;46.248;6.930;2023-08-24T10:18:38;11.70;;;4.97;;
13321;SDS011;6730;46.248;6.930;2023-08-24T10:21:06;19.20;;;5.80;;
13321;SDS011;6730;46.248;6.930;2023-08-24T10:23:33;21.05;;;6.68;;
13321;SDS011;6730;46.248;6.930;2023-08-24T10:26:02;14.57;;;5.82;;
13321;SDS011;6730;46.248;6.930;2023-08-24T10:28:29;15.98;;;5.32;;
13321;SDS011;6730;46.248;6.930;2023-08-24T10:30:58;13.38;;;5.00;;
13321;SDS011;6730;46.248;6.930;2023-08-24T10:33:25;18.48;;;6.00;;
13321;SDS011;6730;46.248;6.930;2023-08-24T10:35:54;17.85;;;5.93;;
13321;SDS011;6730;46.248;6.930;2023-08-24T10:38:35;20.40;;;5.72;;
13321;SDS011;6730;46.248;6.930;2023-08-24T10:41:08;15.10;;;5.57;;
13321;SDS011;6730;46.248;6.930;2023-08-24T10:43:38;22.10;;;5.03;;
13321;SDS011;6730;46.248;6.930;2023-08-24T10:46:05;12.35;;;5.90;;
13321;SDS011;6730;46.248;6.930;2023-08-24T10:56:38;18.85;;;5.63;;
13321;SDS011;6730;46.248;6.930;2023-08-24T11:01:39;16.10;;;6.15;;
13321;SDS011;6730;46.248;6.930;2023-08-24T11:04:19;15.30;;;6.47;;
13321;SDS011;6730;46.248;6.930;2023-08-24T11:06:55;11.52;;;5.20;;
13321;SDS011;6730;46.248;6.930;2023-08-24T11:09:22;17.13;;;5.40;;
13321;SDS011;6730;46.248;6.930;2023-08-24T11:11:59;15.00;;;5.55;;
13321;SDS011;6730;46.248;6.930;2023-08-24T11:14:25;17.15;;;5.45;;
13321;SDS011;6730;46.248;6.930;2023-08-24T11:16:52;18.80;;;5.97;;
13321;SDS011;6730;46.248;6.930;2023-08-24T11:19:19;17.48;;;5.38;;
13321;SDS011;6730;46.248;6.930;2023-08-24T11:21:45;17.02;;;5.85;;
13321;SDS011;6730;46.248;6.930;2023-08-24T11:24:12;13.70;;;5.38;;
13321;SDS011;6730;46.248;6.930;2023-08-24T11:26:41;15.13;;;6.15;;
13321;SDS011;6730;46.248;6.930;2023-08-24T11:29:08;14.93;;;5.88;;
13321;SDS011;6730;46.248;6.930;2023-08-24T11:31:34;23.02;;;5.60;;
13321;SDS011;6730;46.248;6.930;2023-08-24T11:34:00;14.63;;;5.30;;
13321;SDS011;6730;46.248;6.930;2023-08-24T11:36:26;14.75;;;5.13;;
13321;SDS011;6730;46.248;6.930;2023-08-24T11:38:57;17.45;;;6.35;;
13321;SDS011;6730;46.248;6.930;2023-08-24T11:41:24;16.02;;;5.95;;
13321;SDS011;6730;46.248;6.930;2023-08-24T11:43:57;14.40;;;6.05;;
13321;SDS011;6730;46.248;6.930;2023-08-24T11:46:24;15.52;;;5.10;;
13321;SDS011;6730;46.248;6.930;2023-08-24T11:48:50;14.68;;;5.43;;
13321;SDS011;6730;46.248;6.930;2023-08-24T11:51:16;12.15;;;5.95;;
13321;SDS011;6730;46.248;6.930;2023-08-24T11:53:43;19.30;;;5.93;;
13321;SDS011;6730;46.248;6.930;2023-08-24T11:56:10;13.13;;;5.07;;
13321;SDS011;6730;46.248;6.930;2023-08-24T11:58:40;16.90;;;5.30;;
13321;SDS011;6730;46.248;6.930;2023-08-24T12:01:10;15.98;;;5.40;;
13321;SDS011;6730;46.248;6.930;2023-08-24T12:03:37;16.77;;;6.10;;
13321;SDS011;6730;46.248;6.930;2023-08-24T12:06:09;10.40;;;5.18;;
13321;SDS011;6730;46.248;6.930;2023-08-24T12:08:43;14.85;;;6.15;;
13321;SDS011;6730;46.248;6.930;2023-08-24T12:11:14;12.75;;;5.75;;
13321;SDS011;6730;46.248;6.930;2023-08-24T12:13:51;16.15;;;6.40;;
13321;SDS011;6730;46.248;6.930;2023-08-24T12:16:18;16.48;;;5.65;;
13321;SDS011;6730;46.248;6.930;2023-08-24T12:18:48;18.40;;;5.95;;
13321;SDS011;6730;46.248;6.930;2023-08-24T12:21:16;15.68;;;5.75;;
13321;SDS011;6730;46.248;6.930;2023-08-24T12:23:42;13.40;;;5.28;;
13321;SDS011;6730;46.248;6.930;2023-08-24T12:26:08;13.32;;;5.28;;
13321;SDS011;6730;46.248;6.930;2023-08-24T12:28:33;11.45;;;5.22;;
13321;SDS011;6730;46.248;6.930;2023-08-24T12:31:00;19.23;;;5.15;;
13321;SDS011;6730;46.248;6.930;2023-08-24T12:33:28;15.63;;;6.53;;
13321;SDS011;6730;46.248;6.930;2023-08-24T12:35:59;16.33;;;5.65;;
13321;SDS011;6730;46.248;6.930;2023-08-24T12:38:25;15.98;;;5.47;;
13321;SDS011;6730;46.248;6.930;2023-08-24T12:40:52;17.88;;;6.22;;
13321;SDS011;6730;46.248;6.930;2023-08-24T12:43:18;14.48;;;5.72;;
13321;SDS011;6730;46.248;6.930;2023-08-24T12:45:44;16.88;;;5.93;;
13321;SDS011;6730;46.248;6.930;2023-08-24T12:48:10;13.55;;;5.63;;
13321;SDS011;6730;46.248;6.930;2023-08-24T12:50:37;11.05;;;5.30;;
13321;SDS011;6730;46.248;6.930;2023-08-24T12:53:05;12.18;;;4.97;;
13321;SDS011;6730;46.248;6.930;2023-08-24T12:55:35;15.50;;;5.40;;
13321;SDS011;6730;46.248;6.930;2023-08-24T12:58:03;12.77;;;5.50;;
13321;SDS011;6730;46.248;6.930;2023-08-24T13:00:29;11.43;;;4.95;;
13321;SDS011;6730;46.248;6.930;2023-08-24T13:02:55;13.40;;;5.32;;
13321;SDS011;6730;46.248;6.930;2023-08-24T13:05:21;11.57;;;4.75;;
13321;SDS011;6730;46.248;6.930;2023-08-24T13:07:47;14.77;;;5.30;;
13321;SDS011;6730;46.248;6.930;2023-08-24T13:10:13;13.40;;;5.28;;
13321;SDS011;6730;46.248;6.930;2023-08-24T13:12:39;10.60;;;4.68;;
13321;SDS011;6730;46.248;6.930;2023-08-24T13:15:05;16.10;;;6.00;;
13321;SDS011;6730;46.248;6.930;2023-08-24T13:17:31;19.10;;;5.53;;
13321;SDS011;6730;46.248;6.930;2023-08-24T13:19:57;14.82;;;5.30;;
13321;SDS011;6730;46.248;6.930;2023-08-24T13:22:23;11.60;;;4.75;;
13321;SDS011;6730;46.248;6.930;2023-08-24T13:24:48;11.68;;;5.00;;
13321;SDS011;6730;46.248;6.930;2023-08-24T13:27:14;12.57;;;4.90;;
13321;SDS011;6730;46.248;6.930;2023-08-24T13:29:40;20.88;;;6.43;;
13321;SDS011;6730;46.248;6.930;2023-08-24T13:32:06;11.15;;;4.85;;
13321;SDS011;6730;46.248;6.930;2023-08-24T13:34:31;9.23;;;5.22;;
13321;SDS011;6730;46.248;6.930;2023-08-24T13:36:57;10.55;;;4.93;;
13321;SDS011;6730;46.248;6.930;2023-08-24T13:39:25;13.88;;;5.53;;
13321;SDS011;6730;46.248;6.930;2023-08-24T13:41:53;11.13;;;4.80;;
13321;SDS011;6730;46.248;6.930;2023-08-24T13:44:19;8.70;;;5.40;;
13321;SDS011;6730;46.248;6.930;2023-08-24T13:46:45;13.48;;;5.32;;
13321;SDS011;6730;46.248;6.930;2023-08-24T13:49:11;9.98;;;5.07;;
13321;SDS011;6730;46.248;6.930;2023-08-24T13:51:37;11.90;;;5.00;;
13321;SDS011;6730;46.248;6.930;2023-08-24T13:54:02;15.25;;;5.32;;
13321;SDS011;6730;46.248;6.930;2023-08-24T13:56:37;10.30;;;5.05;;
13321;SDS011;6730;46.248;6.930;2023-08-24T13:59:03;8.82;;;4.47;;
13321;SDS011;6730;46.248;6.930;2023-08-24T14:01:28;9.43;;;5.43;;
13321;SDS011;6730;46.248;6.930;2023-08-24T14:03:54;7.93;;;4.78;;
13321;SDS011;6730;46.248;6.930;2023-08-24T14:06:20;20.33;;;5.68;;
13321;SDS011;6730;46.248;6.930;2023-08-24T14:08:46;7.97;;;5.18;;
13321;SDS011;6730;46.248;6.930;2023-08-24T14:11:11;9.25;;;4.90;;
13321;SDS011;6730;46.248;6.930;2023-08-24T14:13:38;13.88;;;5.75;;
13321;SDS011;6730;46.248;6.930;2023-08-24T14:16:03;9.25;;;5.35;;
13321;SDS011;6730;46.248;6.930;2023-08-24T14:18:29;9.10;;;4.97;;
13321;SDS011;6730;46.248;6.930;2023-08-24T14:20:55;8.10;;;5.22;;
13321;SDS011;6730;46.248;6.930;2023-08-24T14:23:21;10.25;;;5.25;;
13321;SDS011;6730;46.248;6.930;2023-08-24T14:25:47;11.30;;;5.45;;
13321;SDS011;6730;46.248;6.930;2023-08-24T14:28:13;12.77;;;5.07;;
13321;SDS011;6730;46.248;6.930;2023-08-24T14:30:39;10.90;;;4.63;;
13321;SDS011;6730;46.248;6.930;2023-08-24T14:33:05;13.13;;;5.45;;
13321;SDS011;6730;46.248;6.930;2023-08-24T14:35:30;10.45;;;5.60;;
13321;SDS011;6730;46.248;6.930;2023-08-24T14:37:57;10.65;;;5.20;;
13321;SDS011;6730;46.248;6.930;2023-08-24T14:40:23;13.10;;;6.35;;
13321;SDS011;6730;46.248;6.930;2023-08-24T14:42:48;12.75;;;5.65;;
13321;SDS011;6730;46.248;6.930;2023-08-24T14:45:15;11.88;;;5.47;;
13321;SDS011;6730;46.248;6.930;2023-08-24T14:47:44;9.18;;;5.25;;
13321;SDS011;6730;46.248;6.930;2023-08-24T14:50:10;13.15;;;5.78;;
13321;SDS011;6730;46.248;6.930;2023-08-24T14:52:35;11.15;;;4.95;;
13321;SDS011;6730;46.248;6.930;2023-08-24T14:55:01;10.38;;;5.40;;
13321;SDS011;6730;46.248;6.930;2023-08-24T14:57:27;9.45;;;4.90;;
13321;SDS011;6730;46.248;6.930;2023-08-24T14:59:53;12.75;;;5.75;;
13321;SDS011;6730;46.248;6.930;2023-08-24T15:02:19;5.75;;;4.90;;
13321;SDS011;6730;46.248;6.930;2023-08-24T15:04:44;10.57;;;5.38;;
13321;SDS011;6730;46.248;6.930;2023-08-24T15:07:10;10.05;;;5.50;;